Kassel-Calden Airport

EDVK · Hesse, Alemanha

História da METAR EDVK · Kassel-Calden Airport

Abaixo você vê METARs dos últimos dias. Selecione um ano para navegar pelos METARs mais antigos, a partir do ano 2007.

19 de maio de 2024

Hora Código Clima Temp. Visibilidade Tecto Vento METAR/SPECI
10:20
M
15 °C 10 km+ 1.200 ft 250° 250° 3 kt METAR EDVK 190820Z 25003KT 200V300 9999 FEW006 BKN012 15/12 Q1010
09:50
M
15 °C 10 km+ 1.200 ft Var Var 3 kt METAR EDVK 190750Z VRB03KT 9999 FEW006 BKN012 15/12 Q1010
09:20
I
15 °C 10 km+ 700 ft 280° 280° 3 kt METAR EDVK 190720Z 28003KT 240V340 9999 BKN007 15/12 Q1010
08:50
I
14 °C 10 km+ 600 ft 260° 260° 3 kt METAR EDVK 190650Z 26003KT 220V310 9999 BKN006 BKN015 14/12 Q1010
08:20
L
14 °C 10 km+ 400 ft 250° 250° 3 kt METAR EDVK 190620Z 25003KT 220V280 9999 3000SE BCFG SCT001 BKN004 14/13 Q1010
07:50
M
13 °C 5 km 1.100 ft 270° 270° 3 kt METAR EDVK 190550Z 27003KT 5000 0800E R27/P2000N BCFG BR SCT001 BKN011 13/13 Q1010
07:20
L
13 °C 2 km 200 ft Var Var 2 kt METAR EDVK 190520Z VRB02KT 2000 0800E R27/2000U -DZ BCFG BR BKN002 OVC009 13/12 Q1010
06:50
L
13 °C 450 m - Var Var 2 kt METAR EDVK 190450Z AUTO VRB02KT 0500 0450 R09/P2000N // VV/// 13/12 Q1009
06:20
L
13 °C 350 m - 360° 360° 0 kt METAR EDVK 190420Z AUTO 00000KT 0400 0350 R09/1000U // VV/// 13/12 Q1009
05:50
L
13 °C 500 m 6.600 ft Var Var 2 kt METAR EDVK 190350Z AUTO VRB02KT 0600 0500 R09/0800D // FEW001/// BKN066/// 13/12 Q1009
05:20
I
13 °C 1,6 km 5.800 ft 360° 360° 0 kt METAR EDVK 190320Z AUTO 00000KT 3500 1600 // BKN058/// 13/12 Q1009
04:50
V
13 °C 10 km+ - Var Var 1 kt METAR EDVK 190250Z AUTO VRB01KT 9999 // FEW058/// SCT071/// 13/12 Q1009
04:20
V
13 °C 8 km - Var Var 1 kt METAR EDVK 190220Z AUTO VRB01KT 8000 // FEW013/// SCT069/// 13/12 Q1009
03:50
M
13 °C 7 km - Var Var 2 kt METAR EDVK 190150Z AUTO VRB02KT 7000 // FEW003/// SCT066/// 13/12 Q1009
03:20
I
13 °C 5 km 800 ft 360° 360° 0 kt METAR EDVK 190120Z AUTO 00000KT 5000 // SCT003/// BKN008/// 13/12 Q1009
02:50
V
13 °C 8 km 6.300 ft 360° 360° 0 kt METAR EDVK 190050Z AUTO 00000KT 8000 // SCT004/// BKN063/// 13/12 Q1009
02:20
V
13 °C 10 km+ - Var Var 2 kt METAR EDVK 190020Z AUTO VRB02KT 9999 // FEW010/// SCT063/// 13/12 Q1009
01:50
V
13 °C 10 km+ - 200° 200° 3 kt METAR EDVK 182350Z AUTO 20003KT 9999 // FEW010/// 13/13 Q1010
01:20
V
13 °C 10 km+ - 360° 360° 0 kt METAR EDVK 182320Z AUTO 00000KT 9999 // FEW024/// SCT062/// 13/13 Q1010
00:50
M
13 °C 6 km - Var Var 1 kt METAR EDVK 182250Z AUTO VRB01KT 6000 // FEW010/// SCT058/// 13/13 Q1010
00:20
V
13 °C 8 km 6.300 ft Var Var 1 kt METAR EDVK 182220Z AUTO VRB01KT 8000 // BKN063/// 13/13 Q1010

18 de maio de 2024

Hora Código Clima Temp. Visibilidade Tecto Vento METAR/SPECI
23:50
V
13 °C 9 km 6.600 ft 040° 040° 3 kt METAR EDVK 182150Z AUTO 04003KT 9000 // BKN066/// 13/13 Q1010
23:20
V
14 °C 10 km+ - 360° 360° 0 kt METAR EDVK 182120Z AUTO 00000KT 9999 // SCT055/// SCT073/// 14/13 Q1010
22:50
V
14 °C 10 km+ - 200° 200° 3 kt METAR EDVK 182050Z AUTO 20003KT 9999 // SCT062/// 14/13 Q1010
22:20
V
14 °C 10 km+ - 190° 190° 3 kt METAR EDVK 182020Z AUTO 19003KT 9999 // SCT063/// SCT074/// 14/13 Q1010
21:50
V
14 °C 10 km+ - 210° 210° 3 kt METAR EDVK 181950Z AUTO 21003KT 180V270 9999 // FEW063/// 14/13 Q1010
21:20
V
14 °C 10 km+ - Var Var 1 kt METAR EDVK 181920Z VRB01KT 9999 -RA FEW013 14/13 Q1010
20:50
V
15 °C 10 km+ - 150° 150° 3 kt METAR EDVK 181850Z 15003KT 9999 -RA FEW026 15/13 Q1010
20:20
V
15 °C 10 km+ - 150° 150° 3 kt METAR EDVK 181820Z 15003KT 120V180 9999 VCSH FEW020 15/12 Q1009
19:50
V
16 °C 10 km+ - 170° 170° 4 kt METAR EDVK 181750Z 17004KT 9999 FEW022 16/12 Q1009
19:20
V
16 °C 10 km+ - Var Var 2 kt METAR EDVK 181720Z VRB02KT 9999 FEW030 16/12 Q1009
18:50
V
17 °C 10 km+ - 050° 050° 3 kt METAR EDVK 181650Z 05003KT 010V090 9999 FEW029 SCT060TCU 17/12 Q1009
18:20
V
17 °C 10 km+ - 090° 090° 5 kt METAR EDVK 181620Z 09005KT 9999 SCT028 SCT060TCU 17/12 Q1010
17:50
V
17 °C 10 km+ - Var Var 2 kt METAR EDVK 181550Z VRB02KT 9999 FEW027 SCT060TCU 17/11 Q1010
17:20
V
17 °C 10 km+ - 240° 240° 3 kt METAR EDVK 181520Z 24003KT 190V270 9999 VCSH FEW030 SCT060CB 17/11 Q1010
16:50
V
17 °C 10 km+ - 310° 310° 4 kt METAR EDVK 181450Z 31004KT 270V340 9999 FEW025 SCT060CB 17/11 Q1010
16:20
V
16 °C 10 km+ - 320° 320° 4 kt METAR EDVK 181420Z 32004KT 300V360 9999 VCSH FEW025 FEW061CB 16/11 Q1010
15:50
V
17 °C 10 km+ - 270° 270° 6 kt METAR EDVK 181350Z 27006KT 250V310 9999 FEW025 SCT059TCU 17/11 Q1010
15:20
V
17 °C 10 km+ - 280° 280° 7 kt METAR EDVK 181320Z 28007KT 9999 FEW026 SCT053TCU 17/11 Q1010
14:50
V
17 °C 10 km+ - 280° 280° 5 kt METAR EDVK 181250Z 28005KT 240V320 9999 FEW024TCU 17/11 Q1010
14:20
V
17 °C 10 km+ - 280° 280° 6 kt METAR EDVK 181220Z 28006KT 250V320 9999 FEW020 SCT046TCU 17/11 Q1010
13:50
V
16 °C 10 km+ - 280° 280° 7 kt METAR EDVK 181150Z 28007KT 9999 FEW018 SCT045TCU 16/11 Q1010
13:20
V
16 °C 10 km+ - 280° 280° 7 kt METAR EDVK 181120Z 28007KT 9999 SCT033TCU 16/12 Q1010
12:50
V
16 °C 10 km+ - 270° 270° 7 kt METAR EDVK 181050Z 27007KT 9999 SCT029TCU 16/11 Q1010
12:20
V
17 °C 10 km+ - Var Var 2 kt METAR EDVK 181020Z VRB02KT 9999 VCSH SCT028CB 17/09 Q1010
11:50
V
17 °C 10 km+ - Var Var 3 kt METAR EDVK 180950Z VRB03KT 9999 FEW019 SCT029TCU 17/11 Q1010
11:20
V
16 °C 10 km+ - 090° 090° 4 kt METAR EDVK 180920Z 09004KT 050V150 9999 FEW025 16/10 Q1010
10:50
V
16 °C 10 km+ - 090° 090° 4 kt METAR EDVK 180850Z 09004KT 040V130 9999 SCT024 16/10 Q1010
10:20
V
16 °C 10 km+ - 060° 060° 3 kt METAR EDVK 180820Z 06003KT 340V110 9999 FEW018 SCT023 16/11 Q1010
09:50
V
16 °C 10 km+ - 090° 090° 4 kt METAR EDVK 180750Z 09004KT 040V160 9999 SCT018 SCT033 16/10 Q1010
09:20
V
15 °C 10 km+ - 080° 080° 4 kt METAR EDVK 180720Z 08004KT 020V130 9999 SCT017 15/10 Q1010
08:50
V
14 °C 10 km+ - 100° 100° 4 kt METAR EDVK 180650Z 10004KT 050V120 9999 FEW012 14/11 Q1010
08:20
V
14 °C 10 km+ - 120° 120° 3 kt METAR EDVK 180620Z 12003KT 040V190 9999 FEW012 14/11 Q1009
07:50
V
13 °C 10 km+ - Var Var 2 kt METAR EDVK 180550Z VRB02KT 9999 FEW025 13/10 Q1009
07:20
V
13 °C 10 km+ - 260° 260° 2 kt METAR EDVK 180520Z 26002KT 9999 FEW018 SCT022 13/10 Q1009
06:50
V
12 °C 10 km+ 5.200 ft 290° 290° 2 kt METAR EDVK 180450Z AUTO 29002KT 9999 // FEW019/// SCT024/// BKN052/// 12/10 Q1009
06:20
V
12 °C 10 km+ 5.300 ft Var Var 2 kt METAR EDVK 180420Z AUTO VRB02KT 9999 // FEW029/// OVC053/// 12/10 Q1009
05:50
V
12 °C 10 km+ 4.600 ft Var Var 2 kt METAR EDVK 180350Z AUTO VRB02KT 9999 // FEW031/// BKN046/// 12/10 Q1009
05:20
V
12 °C 10 km+ 5.100 ft Var Var 2 kt METAR EDVK 180320Z AUTO VRB02KT 9999 // FEW021/// SCT032/// BKN051/// 12/10 Q1009
04:50
V
12 °C 10 km+ 5.500 ft Var Var 1 kt METAR EDVK 180250Z AUTO VRB01KT 9999 // FEW035/// BKN055/// 12/10 Q1009
04:20
V
12 °C 10 km+ 5.600 ft 070° 070° 4 kt METAR EDVK 180220Z AUTO 07004KT 050V120 9999 // SCT037/// BKN056/// 12/10 Q1008
03:50
V
12 °C 10 km+ 3.800 ft 060° 060° 5 kt METAR EDVK 180150Z AUTO 06005KT 9999 // BKN038/// 12/10 Q1008
03:20
M
12 °C 10 km+ 2.800 ft 070° 070° 2 kt METAR EDVK 180120Z AUTO 07002KT 9999 // BKN028/// BKN038/// BKN043/// 12/10 Q1008
02:50
V
12 °C 10 km+ 3.300 ft 050° 050° 3 kt METAR EDVK 180050Z AUTO 05003KT 9999 // BKN033/// BKN044/// 12/10 Q1008
02:20
V
11 °C 10 km+ 3.400 ft Var Var 2 kt METAR EDVK 180020Z AUTO VRB02KT 9999 // BKN034/// 11/09 Q1008
01:50
V
11 °C 10 km+ - Var Var 1 kt METAR EDVK 172350Z AUTO VRB01KT 9999 // FEW031/// 11/09 Q1008
01:20
V
11 °C 10 km+ - Var Var 1 kt METAR EDVK 172320Z AUTO VRB01KT 9999 // NCD 11/08 Q1008
00:50
V
12 °C 10 km+ - Var Var 1 kt METAR EDVK 172250Z AUTO VRB01KT 9999 // NCD 12/09 Q1008
00:20
V
13 °C 10 km+ 5.600 ft 060° 060° 4 kt METAR EDVK 172220Z AUTO 06004KT 9999 // FEW036/// BKN056/// 13/10 Q1008

17 de maio de 2024

Hora Código Clima Temp. Visibilidade Tecto Vento METAR/SPECI
23:50
V
13 °C 10 km+ 5.600 ft 040° 040° 4 kt METAR EDVK 172150Z AUTO 04004KT 9999 // FEW035/// BKN056/// BKN110/// 13/10 Q1008
23:20
V
13 °C 10 km+ - 030° 030° 4 kt METAR EDVK 172120Z AUTO 03004KT 9999 // SCT055/// 13/10 Q1008
22:50
V
14 °C 10 km+ 11.000 ft 050° 050° 5 kt METAR EDVK 172050Z AUTO 05005KT 9999 // FEW039/// SCT045/// BKN110/// 14/10 Q1008
22:20
V
14 °C 10 km+ 11.000 ft 010° 010° 3 kt METAR EDVK 172020Z AUTO 01003KT 9999 // BKN110/// 14/09 Q1008
21:50
V
14 °C 10 km+ 11.000 ft 080° 080° 3 kt METAR EDVK 171950Z AUTO 08003KT 9999 // BKN110/// 14/09 Q1008
21:20
V
15 °C 10 km+ - 060° 060° 5 kt METAR EDVK 171920Z 06005KT CAVOK 15/09 Q1008
20:50
V
16 °C 10 km+ - 060° 060° 8 kt METAR EDVK 171850Z 06008KT CAVOK 16/09 Q1007
20:20
V
17 °C 10 km+ - 070° 070° 8 kt METAR EDVK 171820Z 07008KT CAVOK 17/08 Q1007
19:50
V
17 °C 10 km+ - 080° 080° 11 kt METAR EDVK 171750Z 08011KT CAVOK 17/08 Q1007
19:20
V
18 °C 10 km+ - 070° 070° 11 kt METAR EDVK 171720Z 07011KT CAVOK 18/07 Q1007
18:50
V
18 °C 10 km+ - 060° 060° 9 kt METAR EDVK 171650Z 06009KT 020V080 CAVOK 18/07 Q1006
18:20
V
18 °C 10 km+ - 080° 080° 13 kt METAR EDVK 171620Z 08013KT CAVOK 18/07 Q1007
17:50
V
19 °C 10 km+ - 070° 070° 13 kt METAR EDVK 171550Z 07013KT 040V100 CAVOK 19/09 Q1007
17:20
V
20 °C 10 km+ - 090° 090° 14 kt METAR EDVK 171520Z 09014KT 9999 FEW055TCU 20/09 Q1006
16:50
V
19 °C 10 km+ - 090° 090° 12 kt METAR EDVK 171450Z 09012KT 9999 FEW048TCU 19/10 Q1006
16:20
V
20 °C 10 km+ - 090° 090° 16 kt METAR EDVK 171420Z 09016KT 9999 FEW043 20/10 Q1006
15:50
V
20 °C 10 km+ - 100° 100° 15 kt METAR EDVK 171350Z 10015KT 9999 SCT045TCU 20/11 Q1006
15:20
V
19 °C 10 km+ - 090° 090° 12 kt METAR EDVK 171320Z 09012KT 9999 SCT045 19/10 Q1006
14:50
V
19 °C 10 km+ 4.500 ft 090° 090° 16 - 29 kt METAR EDVK 171250Z 09016G29KT 9999 BKN045 19/10 Q1006
14:20
V
20 °C 10 km+ - 100° 100° 12 kt METAR EDVK 171220Z 10012KT 060V120 9999 SCT043 20/10 Q1006
13:50
V
19 °C 10 km+ - 090° 090° 10 kt METAR EDVK 171150Z 09010KT 060V130 9999 SCT040 19/10 Q1006
13:20
V
18 °C 10 km+ 4.600 ft 090° 090° 10 kt METAR EDVK 171120Z 09010KT 9999 BKN046 18/10 Q1006
12:50
V
18 °C 10 km+ 4.600 ft 090° 090° 10 kt METAR EDVK 171050Z 09010KT 9999 BKN046 18/10 Q1006
12:20
V
18 °C 10 km+ 4.400 ft 090° 090° 15 kt METAR EDVK 171020Z 09015KT 9999 BKN044 18/09 Q1006
11:50
V
18 °C 10 km+ 4.500 ft 110° 110° 14 kt METAR EDVK 170950Z 11014KT 9999 FEW040 BKN045 18/10 Q1006
11:20
V
18 °C 10 km+ - 100° 100° 17 kt METAR EDVK 170920Z 10017KT 9999 FEW037 SCT052 18/09 Q1006
10:50
V
18 °C 10 km+ - 090° 090° 15 kt METAR EDVK 170850Z 09015KT CAVOK 18/11 Q1005
10:20
V
18 °C 10 km+ - 080° 080° 16 kt METAR EDVK 170820Z 08016KT CAVOK 18/11 Q1005
09:50
V
16 °C 10 km+ - 090° 090° 11 kt METAR EDVK 170750Z 09011KT 060V120 CAVOK 16/10 Q1005
09:20
V
16 °C 10 km+ - 090° 090° 10 kt METAR EDVK 170720Z 09010KT CAVOK 16/10 Q1005
08:50
V
15 °C 10 km+ - 080° 080° 6 kt METAR EDVK 170650Z 08006KT 040V130 CAVOK 15/10 Q1005
08:20
V
15 °C 10 km+ - 070° 070° 7 kt METAR EDVK 170620Z 07007KT 030V110 9999 FEW044 15/10 Q1005
07:50
V
15 °C 10 km+ - 030° 030° 3 kt METAR EDVK 170550Z 03003KT 340V150 9999 FEW044 15/11 Q1005
Relatar uma mudança